createdAt,value
2018-01-11T00:11:27.349Z,71.63
2018-01-11T00:13:55.695Z,70.53
2018-01-11T00:16:23.813Z,68.80
2018-01-11T00:18:51.987Z,61.63
2018-01-11T00:21:20.197Z,33.67
2018-01-11T00:23:49.077Z,41.80
2018-01-11T00:26:18.021Z,42.50
2018-01-11T00:28:46.942Z,51.23
2018-01-11T00:31:15.103Z,48.00
2018-01-11T00:33:43.276Z,49.90
2018-01-11T00:36:11.406Z,60.77
2018-01-11T00:38:39.918Z,91.10
2018-01-11T00:41:08.085Z,74.17
2018-01-11T00:43:36.502Z,58.27
2018-01-11T00:46:05.918Z,44.17
2018-01-11T00:48:35.364Z,43.57
2018-01-11T00:51:03.486Z,37.20
2018-01-11T00:53:31.592Z,47.40
2018-01-11T00:55:59.955Z,41.50
2018-01-11T00:58:28.850Z,43.73
2018-01-11T01:00:57.737Z,42.27
2018-01-11T01:03:26.707Z,40.70
2018-01-11T01:05:54.822Z,40.53
2018-01-11T01:08:22.955Z,39.10
2018-01-11T01:10:51.065Z,47.97
2018-01-11T01:13:19.293Z,58.60
2018-01-11T01:15:48.066Z,43.40
2018-01-11T01:18:16.300Z,50.37
2018-01-11T01:20:44.389Z,33.77
2018-01-11T01:23:12.519Z,46.57
2018-01-11T01:25:41.051Z,35.77
2018-01-11T01:28:09.160Z,30.10
2018-01-11T01:30:37.273Z,35.23
2018-01-11T01:33:06.927Z,35.60
2018-01-11T01:35:35.180Z,32.20
2018-01-11T01:38:03.298Z,36.90
2018-01-11T01:40:31.403Z,35.70
2018-01-11T01:43:00.271Z,40.83
2018-01-11T01:45:28.433Z,37.03
2018-01-11T01:47:56.591Z,29.43
2018-01-11T01:50:24.727Z,32.20
2018-01-11T01:52:52.831Z,28.00
2018-01-11T01:55:20.964Z,28.57
2018-01-11T01:57:49.838Z,28.93
2018-01-11T02:00:18.742Z,33.57
2018-01-11T02:02:47.651Z,32.63
2018-01-11T02:05:15.836Z,29.93
2018-01-11T02:07:43.980Z,35.27
2018-01-11T02:10:12.856Z,30.23
2018-01-11T02:12:41.212Z,32.33
2018-01-11T02:15:09.310Z,27.33
2018-01-11T02:17:37.428Z,47.73
2018-01-11T02:20:05.688Z,35.20
2018-01-11T02:22:33.798Z,31.57
2018-01-11T02:25:02.002Z,23.63
2018-01-11T02:27:30.126Z,27.13
2018-01-11T02:29:58.230Z,30.77
2018-01-11T02:32:26.368Z,29.67
2018-01-11T02:34:54.517Z,24.50
2018-01-11T02:37:23.390Z,26.40
2018-01-11T02:39:51.529Z,30.93
2018-01-11T02:42:21.083Z,31.87
2018-01-11T02:44:49.982Z,37.10
2018-01-11T02:47:18.857Z,32.43
2018-01-11T02:49:47.024Z,36.17
2018-01-11T02:52:15.157Z,31.67
2018-01-11T02:54:43.293Z,26.87
2018-01-11T02:57:12.168Z,33.10
2018-01-11T02:59:41.059Z,37.13
2018-01-11T03:02:09.947Z,28.17
2018-01-11T03:04:38.393Z,28.77
2018-01-11T03:07:06.519Z,27.30
2018-01-11T03:09:35.513Z,29.73
2018-01-11T03:12:04.401Z,20.73
2018-01-11T03:14:33.324Z,20.90
2018-01-11T03:17:03.112Z,27.70
2018-01-11T03:19:31.996Z,22.33
2018-01-11T03:22:00.880Z,20.13
2018-01-11T03:24:29.768Z,20.40
2018-01-11T03:26:58.732Z,22.57
2018-01-11T03:29:26.902Z,22.73
2018-01-11T03:31:55.031Z,21.53
2018-01-11T03:34:23.138Z,19.17
2018-01-11T03:36:55.212Z,19.00
2018-01-11T03:39:24.128Z,16.23
2018-01-11T03:41:52.302Z,21.43
2018-01-11T03:44:23.181Z,15.43
2018-01-11T03:46:51.296Z,18.97
2018-01-11T03:49:19.397Z,17.53
2018-01-11T03:51:47.578Z,20.90
2018-01-11T03:54:16.506Z,16.73
2018-01-11T03:56:44.628Z,15.20
2018-01-11T03:59:12.754Z,18.17
2018-01-11T04:01:40.860Z,16.07
2018-01-11T04:04:08.978Z,17.83
2018-01-11T04:06:37.441Z,17.63
2018-01-11T04:09:06.351Z,16.67
2018-01-11T04:11:34.509Z,18.07
2018-01-11T04:14:03.401Z,16.53
2018-01-11T04:16:32.279Z,17.33
2018-01-11T04:19:00.463Z,19.47
2018-01-11T04:21:29.354Z,17.50
2018-01-11T04:23:58.312Z,20.67
2018-01-11T04:26:26.461Z,18.67
2018-01-11T04:28:56.685Z,16.60
2018-01-11T04:31:24.793Z,17.43
2018-01-11T04:33:52.957Z,19.83
2018-01-11T04:36:21.862Z,16.23
2018-01-11T04:38:49.980Z,17.23
2018-01-11T04:41:19.193Z,14.60
2018-01-11T04:43:47.535Z,16.90
2018-01-11T04:46:16.436Z,18.20
2018-01-11T04:48:45.306Z,19.63
2018-01-11T04:51:13.426Z,16.07
2018-01-11T04:53:41.548Z,16.13
2018-01-11T04:56:09.674Z,15.70
2018-01-11T04:58:38.542Z,21.70
2018-01-11T05:01:07.434Z,15.93
2018-01-11T05:03:35.576Z,15.90
2018-01-11T05:06:04.822Z,14.30
2018-01-11T05:08:32.975Z,16.43
2018-01-11T05:11:03.494Z,17.60
2018-01-11T05:13:32.372Z,16.60
2018-01-11T05:16:02.050Z,15.77
2018-01-11T05:18:30.145Z,18.57
2018-01-11T05:20:58.288Z,15.63
2018-01-11T05:23:27.167Z,17.67
2018-01-11T05:25:55.302Z,17.17
2018-01-11T05:28:23.453Z,16.60
2018-01-11T05:30:51.594Z,16.27
2018-01-11T05:33:20.944Z,16.23
2018-01-11T05:35:49.065Z,17.50
2018-01-11T05:38:17.183Z,15.70
2018-01-11T05:40:45.416Z,14.63
2018-01-11T05:43:14.510Z,15.30
2018-01-11T05:45:42.829Z,15.27
2018-01-11T05:48:10.926Z,15.00
2018-01-11T05:50:39.938Z,18.43
2018-01-11T05:53:08.196Z,16.13
2018-01-11T05:55:37.074Z,15.03
2018-01-11T05:58:05.844Z,18.07
2018-01-11T06:00:33.975Z,15.27
2018-01-11T06:03:03.062Z,16.67
2018-01-11T06:05:31.168Z,13.80
2018-01-11T06:07:59.886Z,13.47
2018-01-11T06:10:27.993Z,16.87
2018-01-11T06:12:56.098Z,16.83
2018-01-11T06:15:24.194Z,13.07
2018-01-11T06:17:52.360Z,14.10
2018-01-11T06:20:20.468Z,13.07
2018-01-11T06:22:49.360Z,18.27
2018-01-11T06:25:19.726Z,13.60
2018-01-11T06:27:51.236Z,12.60
2018-01-11T06:30:20.131Z,15.13
2018-01-11T06:32:49.461Z,12.17
2018-01-11T06:35:17.610Z,12.37
2018-01-11T06:37:45.755Z,11.63
2018-01-11T06:40:14.434Z,13.13
2018-01-11T06:42:43.921Z,15.50
2018-01-11T06:45:12.041Z,12.83
2018-01-11T06:47:40.949Z,13.07
2018-01-11T06:50:09.071Z,11.47
2018-01-11T06:52:37.203Z,14.37
2018-01-11T06:55:05.323Z,12.20
2018-01-11T06:57:34.360Z,14.03
2018-01-11T07:00:03.263Z,13.87
2018-01-11T07:02:31.391Z,11.73
2018-01-11T07:04:59.505Z,14.53
2018-01-11T07:07:27.611Z,12.63
2018-01-11T07:09:55.749Z,13.40
2018-01-11T07:12:23.870Z,13.83
2018-01-11T07:14:52.103Z,11.97
2018-01-11T07:17:21.910Z,11.03
2018-01-11T07:20:04.276Z,12.83
2018-01-11T07:22:32.386Z,10.73
2018-01-11T07:25:01.294Z,10.93
2018-01-11T07:27:29.437Z,12.07
2018-01-11T07:29:58.308Z,11.60
2018-01-11T07:32:26.487Z,12.53
2018-01-11T07:34:54.640Z,12.27
2018-01-11T07:37:22.860Z,14.80
2018-01-11T07:39:51.754Z,12.13
2018-01-11T07:42:20.626Z,12.03
2018-01-11T07:44:49.532Z,13.03
2018-01-11T07:47:18.418Z,14.07
2018-01-11T07:49:47.464Z,10.93
2018-01-11T07:52:16.748Z,13.73
2018-01-11T07:54:44.854Z,12.77
2018-01-11T07:57:13.357Z,11.03
2018-01-11T07:59:41.469Z,10.10
2018-01-11T08:02:09.601Z,9.80
2018-01-11T08:04:38.373Z,11.23
2018-01-11T08:07:06.499Z,11.43
2018-01-11T08:09:35.075Z,11.97
2018-01-11T08:12:03.203Z,10.60
2018-01-11T08:14:31.977Z,12.63
2018-01-11T08:17:00.089Z,11.00
2018-01-11T08:19:37.786Z,12.77
2018-01-11T08:22:06.356Z,10.37
2018-01-11T08:24:34.495Z,13.67
2018-01-11T08:27:04.037Z,10.20
2018-01-11T08:29:32.233Z,10.73
2018-01-11T08:32:00.308Z,11.30
2018-01-11T08:34:30.763Z,11.57
2018-01-11T08:36:58.877Z,12.87
2018-01-11T08:39:26.985Z,12.10
2018-01-11T08:41:55.864Z,14.23
2018-01-11T08:44:24.753Z,11.67
2018-01-11T08:46:54.264Z,12.50
2018-01-11T08:49:23.158Z,18.83
2018-01-11T08:51:52.053Z,13.33
2018-01-11T08:54:21.916Z,17.67
2018-01-11T08:56:50.086Z,13.33
2018-01-11T08:59:18.186Z,14.80
2018-01-11T09:01:46.344Z,14.30
2018-01-11T09:04:14.466Z,11.27
2018-01-11T09:06:43.360Z,14.33
2018-01-11T09:09:12.853Z,11.53
2018-01-11T09:11:42.182Z,12.47
2018-01-11T09:14:14.790Z,11.20
2018-01-11T09:16:43.013Z,12.10
2018-01-11T09:19:11.899Z,10.90
2018-01-11T09:21:40.793Z,11.53
2018-01-11T09:24:09.704Z,10.50
2018-01-11T09:26:37.863Z,13.60
2018-01-11T09:29:06.759Z,10.70
2018-01-11T09:31:35.634Z,13.93
2018-01-11T09:34:04.628Z,12.50
2018-01-11T09:36:35.037Z,9.17
2018-01-11T09:39:03.164Z,12.70
2018-01-11T09:41:31.291Z,10.07
2018-01-11T09:43:59.477Z,9.97
2018-01-11T09:46:29.619Z,11.93
2018-01-11T09:48:58.968Z,10.03
2018-01-11T09:51:41.368Z,12.10
2018-01-11T09:54:11.097Z,11.43
2018-01-11T09:56:39.374Z,11.27
2018-01-11T09:59:07.519Z,8.77
2018-01-11T10:01:35.638Z,9.57
2018-01-11T10:04:03.744Z,11.30
2018-01-11T10:06:31.858Z,9.73
2018-01-11T10:08:59.982Z,8.23
2018-01-11T10:11:28.088Z,7.23
2018-01-11T10:13:56.260Z,10.47
2018-01-11T10:16:24.768Z,10.80
2018-01-11T10:18:52.878Z,10.07
2018-01-11T10:21:21.768Z,8.57
2018-01-11T10:23:50.685Z,11.03
2018-01-11T10:26:18.831Z,8.90
2018-01-11T10:28:47.708Z,8.40
2018-01-11T10:31:15.880Z,8.13
2018-01-11T10:33:44.005Z,9.20
2018-01-11T10:36:12.155Z,10.03
2018-01-11T10:38:41.548Z,13.63
2018-01-11T10:41:10.633Z,10.87
2018-01-11T10:43:39.528Z,9.23
2018-01-11T10:46:21.644Z,11.13
2018-01-11T10:48:50.511Z,8.00
2018-01-11T10:51:18.625Z,10.27
2018-01-11T10:53:47.526Z,11.20
2018-01-11T10:56:15.632Z,8.23
2018-01-11T10:58:43.743Z,9.33
2018-01-11T11:01:17.385Z,12.10
2018-01-11T11:03:46.567Z,14.97
2018-01-11T11:06:14.679Z,9.97
2018-01-11T11:08:42.795Z,9.77
2018-01-11T11:11:10.904Z,8.20
2018-01-11T11:13:39.024Z,15.37
2018-01-11T11:16:07.896Z,10.90
2018-01-11T11:18:36.032Z,11.07
2018-01-11T11:21:04.148Z,11.57
2018-01-11T11:23:32.394Z,10.57
2018-01-11T11:26:00.621Z,10.17
2018-01-11T11:28:29.496Z,9.53
2018-01-11T11:30:57.593Z,11.73
2018-01-11T11:33:25.729Z,11.37
2018-01-11T11:35:53.842Z,12.30
2018-01-11T11:38:21.972Z,16.70
2018-01-11T11:40:50.185Z,11.07
2018-01-11T11:43:18.308Z,12.90
2018-01-11T11:45:46.486Z,10.93
2018-01-11T11:48:14.975Z,14.17
2018-01-11T11:50:43.104Z,9.17
2018-01-11T11:53:11.348Z,10.83
2018-01-11T11:55:39.565Z,11.33
2018-01-11T11:58:08.866Z,12.67
2018-01-11T12:00:36.998Z,12.87
2018-01-11T12:03:08.645Z,11.40
2018-01-11T12:05:38.324Z,12.37
2018-01-11T12:08:07.391Z,9.83
2018-01-11T12:10:36.837Z,9.20
2018-01-11T12:13:04.959Z,10.03
2018-01-11T12:15:33.072Z,11.40
2018-01-11T12:18:01.210Z,9.63
2018-01-11T12:20:29.325Z,7.17
2018-01-11T12:22:57.446Z,9.60
2018-01-11T12:25:27.541Z,7.10
2018-01-11T12:27:55.670Z,8.33
2018-01-11T12:30:23.830Z,7.97
2018-01-11T12:32:52.891Z,14.97
2018-01-11T12:41:33.577Z,9.00
2018-01-11T12:44:02.703Z,9.53
2018-01-11T12:46:31.569Z,7.43
2018-01-11T12:49:01.156Z,8.80
2018-01-11T12:51:29.272Z,8.67
2018-01-11T12:53:58.147Z,7.37
2018-01-11T12:56:26.274Z,8.60
2018-01-11T12:58:54.436Z,10.27
2018-01-11T13:01:23.979Z,7.80
2018-01-11T13:03:52.084Z,8.27
2018-01-11T13:06:21.018Z,7.87
2018-01-11T13:08:49.120Z,8.77
2018-01-11T13:11:17.375Z,8.07
2018-01-11T13:13:45.905Z,9.20
2018-01-11T13:16:14.019Z,8.33
2018-01-11T13:18:42.167Z,7.43
2018-01-11T13:21:11.971Z,5.77
2018-01-11T13:23:40.851Z,7.77
2018-01-11T13:26:09.089Z,9.07
2018-01-11T13:28:38.004Z,9.10
2018-01-11T13:31:06.218Z,8.93
2018-01-11T13:33:34.359Z,12.70
2018-01-11T13:36:02.467Z,7.53
2018-01-11T13:38:30.582Z,8.77
2018-01-11T13:40:58.682Z,9.27
2018-01-11T13:43:26.840Z,7.63
2018-01-11T13:45:55.080Z,11.10
2018-01-11T13:48:24.413Z,8.30
2018-01-11T13:50:52.530Z,10.47
2018-01-11T13:53:21.411Z,10.17
2018-01-11T13:55:50.311Z,8.90
2018-01-11T13:58:19.197Z,9.50
2018-01-11T14:00:48.111Z,7.77
2018-01-11T14:03:16.268Z,10.10
2018-01-11T14:05:44.607Z,8.23
2018-01-11T14:08:12.720Z,9.97
2018-01-11T14:10:41.594Z,6.73
2018-01-11T14:13:09.728Z,7.80
2018-01-11T14:15:38.834Z,8.60
2018-01-11T14:18:07.022Z,9.33
2018-01-11T14:20:35.129Z,8.73
2018-01-11T14:23:03.261Z,9.60
2018-01-11T14:25:31.393Z,8.43
2018-01-11T14:27:59.516Z,7.20
2018-01-11T14:30:27.610Z,7.57
2018-01-11T14:32:56.645Z,10.73
2018-01-11T14:35:24.787Z,9.90
2018-01-11T14:37:54.186Z,7.50
2018-01-11T14:40:23.082Z,8.87
2018-01-11T14:42:51.949Z,9.07
2018-01-11T14:45:20.073Z,8.03
2018-01-11T14:47:48.176Z,8.87
2018-01-11T14:50:16.859Z,9.13
2018-01-11T14:52:44.986Z,8.33
2018-01-11T14:55:13.127Z,9.97
2018-01-11T14:57:41.241Z,10.43
2018-01-11T15:00:09.415Z,15.33
2018-01-11T15:02:37.751Z,10.67
2018-01-11T15:05:07.917Z,10.80
2018-01-11T15:07:37.213Z,11.00
2018-01-11T15:10:09.801Z,11.60
2018-01-11T15:12:37.984Z,11.77
2018-01-11T15:15:07.597Z,11.77
2018-01-11T15:17:35.778Z,11.03
2018-01-11T15:20:03.894Z,11.77
2018-01-11T15:22:32.018Z,13.47
2018-01-11T15:25:00.143Z,14.40
2018-01-11T15:27:29.026Z,12.60
2018-01-11T15:29:57.520Z,13.13
2018-01-11T15:32:27.110Z,13.13
2018-01-11T15:34:55.232Z,13.20
2018-01-11T15:37:23.387Z,15.47
2018-01-11T15:39:51.569Z,14.50
2018-01-11T15:42:19.684Z,15.73
2018-01-11T15:44:47.796Z,17.77
2018-01-11T15:47:16.711Z,20.10
2018-01-11T15:49:44.858Z,20.20
2018-01-11T15:52:13.754Z,19.87
2018-01-11T15:54:43.557Z,24.47
2018-01-11T15:57:11.676Z,21.77
2018-01-11T15:59:39.811Z,21.33
2018-01-11T16:02:08.693Z,21.63
2018-01-11T16:04:36.898Z,22.27
2018-01-11T16:07:05.003Z,15.00
2018-01-11T16:09:33.137Z,15.67
2018-01-11T16:12:02.048Z,15.27
2018-01-11T16:14:30.157Z,18.77
2018-01-11T16:16:58.307Z,20.60
2018-01-11T16:19:26.408Z,19.83
2018-01-11T16:21:54.551Z,15.27
2018-01-11T16:24:22.667Z,15.90
2018-01-11T16:26:50.789Z,18.07
2018-01-11T16:29:18.933Z,17.07
2018-01-11T16:31:47.909Z,17.10
2018-01-11T16:34:16.058Z,17.80
2018-01-11T16:36:44.168Z,14.87
2018-01-11T16:39:13.071Z,16.93
2018-01-11T16:41:42.073Z,15.27
2018-01-11T16:44:11.459Z,17.13
2018-01-11T16:46:40.380Z,17.40
2018-01-11T16:49:09.435Z,17.80
2018-01-11T16:51:37.617Z,15.47
2018-01-11T16:54:06.564Z,16.03
2018-01-11T16:56:35.792Z,16.53
2018-01-11T16:59:03.919Z,17.20
2018-01-11T17:01:33.078Z,16.97
2018-01-11T17:04:01.969Z,17.97
2018-01-11T17:06:31.078Z,18.77
2018-01-11T17:08:59.981Z,17.70
2018-01-11T17:11:28.146Z,17.67
2018-01-11T17:13:58.055Z,19.93
2018-01-11T17:16:26.952Z,20.13
2018-01-11T17:18:58.042Z,20.80
2018-01-11T17:21:26.188Z,27.53
2018-01-11T17:23:54.369Z,21.20
2018-01-11T17:26:22.543Z,23.13
2018-01-11T17:28:50.676Z,23.27
2018-01-11T17:31:19.542Z,23.77
2018-01-11T17:33:47.787Z,27.10
2018-01-11T17:36:15.923Z,31.57
2018-01-11T17:38:44.815Z,27.33
2018-01-11T17:41:16.684Z,24.77
2018-01-11T17:43:46.493Z,25.30
2018-01-11T17:46:15.394Z,26.10
2018-01-11T17:48:43.509Z,23.73
2018-01-11T17:51:12.644Z,28.13
2018-01-11T17:53:42.678Z,30.13
2018-01-11T17:56:13.257Z,26.77
2018-01-11T17:58:41.566Z,28.60
2018-01-11T18:01:09.781Z,28.33
2018-01-11T18:03:38.573Z,24.23
2018-01-11T18:06:06.703Z,28.47
2018-01-11T18:08:34.838Z,26.03
2018-01-11T18:11:02.965Z,27.40
2018-01-11T18:13:31.853Z,24.93
2018-01-11T18:16:00.764Z,26.07
2018-01-11T18:18:28.920Z,25.03
2018-01-11T18:20:57.834Z,24.67
2018-01-11T18:23:26.064Z,28.77
2018-01-11T18:25:54.198Z,45.47
2018-01-11T18:28:22.321Z,49.20
2018-01-11T18:30:50.466Z,52.37
2018-01-11T18:33:19.299Z,57.97
2018-01-11T18:35:48.225Z,48.47
2018-01-11T18:38:17.186Z,47.97
2018-01-11T18:40:46.162Z,54.67
2018-01-11T18:43:14.397Z,52.77
2018-01-11T18:45:42.798Z,46.73
2018-01-11T18:48:10.960Z,51.13
2018-01-11T18:50:39.285Z,52.87
2018-01-11T18:53:08.197Z,47.17
2018-01-11T18:55:36.308Z,57.10
2018-01-11T18:58:05.677Z,62.67
2018-01-11T19:00:33.822Z,58.73
2018-01-11T19:03:02.783Z,55.37
2018-01-11T19:05:30.959Z,58.47
2018-01-11T19:07:59.247Z,60.10
2018-01-11T19:10:27.430Z,59.60
2018-01-11T19:12:55.621Z,47.03
2018-01-11T19:15:24.642Z,49.80
2018-01-11T19:17:58.437Z,51.17
2018-01-11T19:20:26.636Z,52.57
2018-01-11T19:22:54.823Z,52.83
2018-01-11T19:25:22.977Z,56.40
2018-01-11T19:27:51.172Z,60.97
2018-01-11T19:30:19.436Z,48.70
2018-01-11T19:32:49.390Z,57.23
2018-01-11T19:35:17.639Z,56.13
2018-01-11T19:37:45.823Z,53.13
2018-01-11T19:40:15.724Z,48.27
2018-01-11T19:42:46.616Z,56.93
2018-01-11T19:45:15.681Z,53.63
2018-01-11T19:47:43.974Z,52.17
2018-01-11T19:50:12.982Z,51.70
2018-01-11T19:52:42.019Z,54.77
2018-01-11T19:55:11.558Z,47.70
2018-01-11T19:57:40.511Z,54.40
2018-01-11T20:00:08.938Z,53.97
2018-01-11T20:02:37.198Z,54.27
2018-01-11T20:05:06.310Z,57.17
2018-01-11T20:07:36.368Z,65.47
2018-01-11T20:10:04.647Z,65.40
2018-01-11T20:12:32.970Z,61.70
2018-01-11T20:15:01.335Z,62.00
2018-01-11T20:17:29.680Z,70.20
2018-01-11T20:19:58.272Z,68.70
2018-01-11T20:22:26.610Z,61.97
2018-01-11T20:24:55.767Z,74.93
2018-01-11T20:27:24.071Z,89.53
2018-01-11T20:29:53.786Z,73.53
2018-01-11T20:32:22.856Z,69.83
2018-01-11T20:34:51.143Z,61.27
2018-01-11T20:37:19.578Z,69.73
2018-01-11T20:39:48.510Z,60.60
2018-01-11T20:42:17.057Z,61.73
2018-01-11T20:44:45.349Z,64.80
2018-01-11T20:47:13.589Z,67.43
2018-01-11T20:49:43.018Z,70.40
2018-01-11T20:52:11.636Z,64.93
2018-01-11T20:54:39.941Z,76.57
2018-01-11T20:57:09.983Z,62.13
2018-01-11T20:59:38.734Z,78.43
2018-01-11T21:02:09.425Z,92.30
2018-01-11T21:04:38.451Z,63.13
2018-01-11T21:07:06.734Z,64.83
2018-01-11T21:09:34.944Z,81.67
2018-01-11T21:12:04.016Z,71.53
2018-01-11T21:14:34.076Z,97.43
2018-01-11T21:17:02.288Z,68.07
2018-01-11T21:19:30.519Z,70.53
2018-01-11T21:21:58.760Z,90.50
2018-01-11T21:24:27.109Z,86.07
2018-01-11T21:26:55.815Z,75.57
2018-01-11T21:29:24.067Z,79.90
2018-01-11T21:31:52.285Z,68.10
2018-01-11T21:34:21.189Z,68.97
2018-01-11T21:36:51.061Z,74.60
2018-01-11T21:39:19.262Z,77.33
2018-01-11T21:41:47.469Z,70.03
2018-01-11T21:44:15.602Z,74.07
2018-01-11T21:46:44.127Z,61.37
2018-01-11T21:49:13.090Z,69.70
2018-01-11T21:51:41.982Z,67.63
2018-01-11T21:54:10.149Z,68.27
2018-01-11T21:56:38.306Z,67.87
2018-01-11T21:59:06.474Z,67.90
2018-01-11T22:01:34.614Z,64.57
2018-01-11T22:04:03.513Z,71.53
2018-01-11T22:06:33.281Z,68.87
2018-01-11T22:09:01.422Z,74.30
2018-01-11T22:11:29.616Z,65.93
2018-01-11T22:13:57.825Z,72.50
2018-01-11T22:16:27.079Z,77.00
2018-01-11T22:18:55.247Z,69.90
2018-01-11T22:21:23.368Z,66.63
2018-01-11T22:23:52.262Z,47.83
2018-01-11T22:26:21.141Z,60.53
2018-01-11T22:28:50.022Z,74.40
2018-01-11T22:31:18.201Z,58.03
2018-01-11T22:33:47.130Z,57.53
2018-01-11T22:36:15.305Z,63.07
2018-01-11T22:38:43.373Z,65.77
2018-01-11T22:41:11.491Z,70.93
2018-01-11T22:43:39.893Z,78.20
2018-01-11T22:46:08.113Z,72.73
2018-01-11T22:48:38.054Z,83.97
2018-01-11T22:51:06.194Z,51.07
2018-01-11T22:53:35.223Z,46.03
2018-01-11T22:56:04.237Z,42.40
2018-01-11T22:58:36.202Z,36.53
2018-01-11T23:01:05.876Z,29.80
2018-01-11T23:03:34.004Z,40.43
2018-01-11T23:06:07.012Z,32.70
2018-01-11T23:08:35.135Z,47.33
2018-01-11T23:11:03.302Z,48.60
2018-01-11T23:13:31.422Z,37.67
2018-01-11T23:16:02.983Z,45.93
2018-01-11T23:18:31.293Z,48.00
2018-01-11T23:20:59.516Z,36.53
2018-01-11T23:23:28.418Z,42.90
2018-01-11T23:25:57.308Z,62.70
2018-01-11T23:28:27.524Z,40.83
2018-01-11T23:30:56.405Z,44.80
2018-01-11T23:33:25.335Z,34.90
2018-01-11T23:35:53.495Z,36.93
2018-01-11T23:38:22.391Z,37.50
2018-01-11T23:40:52.265Z,43.63
2018-01-11T23:43:20.386Z,40.27
2018-01-11T23:45:49.719Z,37.00
2018-01-11T23:48:17.849Z,32.13
2018-01-11T23:50:45.977Z,36.40
2018-01-11T23:53:15.026Z,35.73
2018-01-11T23:55:43.705Z,41.87
2018-01-11T23:58:12.593Z,44.57
